sensor_id;sensor_type;location;lat;lon;timestamp;P1;durP1;ratioP1;P2;durP2;ratioP2
25345;SDS011;13300;51.032;3.710;2022-07-25T00:00:22;5.63;;;4.10;;
25345;SDS011;13300;51.032;3.710;2022-07-25T00:02:48;6.65;;;4.35;;
25345;SDS011;13300;51.032;3.710;2022-07-25T00:05:14;6.78;;;4.63;;
25345;SDS011;13300;51.032;3.710;2022-07-25T00:07:40;7.10;;;4.65;;
25345;SDS011;13300;51.032;3.710;2022-07-25T00:10:06;8.20;;;4.47;;
25345;SDS011;13300;51.032;3.710;2022-07-25T00:12:32;6.70;;;4.53;;
25345;SDS011;13300;51.032;3.710;2022-07-25T00:14:58;8.00;;;4.68;;
25345;SDS011;13300;51.032;3.710;2022-07-25T00:17:23;6.03;;;4.03;;
25345;SDS011;13300;51.032;3.710;2022-07-25T00:19:49;6.95;;;4.07;;
25345;SDS011;13300;51.032;3.710;2022-07-25T00:22:15;6.85;;;4.38;;
25345;SDS011;13300;51.032;3.710;2022-07-25T00:24:41;7.30;;;4.47;;
25345;SDS011;13300;51.032;3.710;2022-07-25T00:27:06;8.05;;;4.53;;
25345;SDS011;13300;51.032;3.710;2022-07-25T00:29:32;6.13;;;4.15;;
25345;SDS011;13300;51.032;3.710;2022-07-25T00:31:58;5.10;;;3.67;;
25345;SDS011;13300;51.032;3.710;2022-07-25T00:34:23;7.95;;;4.35;;
25345;SDS011;13300;51.032;3.710;2022-07-25T00:36:49;5.00;;;4.40;;
25345;SDS011;13300;51.032;3.710;2022-07-25T00:39:15;9.35;;;4.32;;
25345;SDS011;13300;51.032;3.710;2022-07-25T00:41:40;7.20;;;4.40;;
25345;SDS011;13300;51.032;3.710;2022-07-25T00:44:08;6.43;;;4.90;;
25345;SDS011;13300;51.032;3.710;2022-07-25T00:46:36;5.82;;;4.38;;
25345;SDS011;13300;51.032;3.710;2022-07-25T00:49:03;9.20;;;4.80;;
25345;SDS011;13300;51.032;3.710;2022-07-25T00:51:28;5.72;;;5.10;;
25345;SDS011;13300;51.032;3.710;2022-07-25T00:53:55;6.88;;;5.00;;
25345;SDS011;13300;51.032;3.710;2022-07-25T00:56:21;10.35;;;5.95;;
25345;SDS011;13300;51.032;3.710;2022-07-25T00:58:48;8.18;;;5.57;;
25345;SDS011;13300;51.032;3.710;2022-07-25T01:01:14;8.05;;;5.50;;
25345;SDS011;13300;51.032;3.710;2022-07-25T01:03:40;8.20;;;5.72;;
25345;SDS011;13300;51.032;3.710;2022-07-25T01:06:06;8.70;;;5.20;;
25345;SDS011;13300;51.032;3.710;2022-07-25T01:08:32;8.38;;;5.53;;
25345;SDS011;13300;51.032;3.710;2022-07-25T01:10:58;6.75;;;5.18;;
25345;SDS011;13300;51.032;3.710;2022-07-25T01:13:23;12.57;;;5.80;;
25345;SDS011;13300;51.032;3.710;2022-07-25T01:15:49;7.40;;;5.13;;
25345;SDS011;13300;51.032;3.710;2022-07-25T01:18:15;8.40;;;5.93;;
25345;SDS011;13300;51.032;3.710;2022-07-25T01:20:41;9.40;;;6.00;;
25345;SDS011;13300;51.032;3.710;2022-07-25T01:23:07;9.68;;;6.00;;
25345;SDS011;13300;51.032;3.710;2022-07-25T01:25:32;12.05;;;6.45;;
25345;SDS011;13300;51.032;3.710;2022-07-25T01:27:58;9.20;;;6.00;;
25345;SDS011;13300;51.032;3.710;2022-07-25T01:30:24;7.80;;;6.35;;
25345;SDS011;13300;51.032;3.710;2022-07-25T01:32:50;7.65;;;5.65;;
25345;SDS011;13300;51.032;3.710;2022-07-25T01:35:16;8.60;;;5.82;;
25345;SDS011;13300;51.032;3.710;2022-07-25T01:37:41;9.70;;;5.90;;
25345;SDS011;13300;51.032;3.710;2022-07-25T01:40:08;8.70;;;5.78;;
25345;SDS011;13300;51.032;3.710;2022-07-25T01:42:33;9.85;;;5.93;;
25345;SDS011;13300;51.032;3.710;2022-07-25T01:45:01;9.90;;;5.70;;
25345;SDS011;13300;51.032;3.710;2022-07-25T01:47:27;10.60;;;6.55;;
25345;SDS011;13300;51.032;3.710;2022-07-25T01:49:53;7.93;;;6.40;;
25345;SDS011;13300;51.032;3.710;2022-07-25T01:52:19;8.15;;;5.72;;
25345;SDS011;13300;51.032;3.710;2022-07-25T01:54:44;9.23;;;6.43;;
25345;SDS011;13300;51.032;3.710;2022-07-25T01:57:10;13.10;;;6.97;;
25345;SDS011;13300;51.032;3.710;2022-07-25T01:59:36;9.77;;;6.88;;
25345;SDS011;13300;51.032;3.710;2022-07-25T02:02:05;9.95;;;6.35;;
25345;SDS011;13300;51.032;3.710;2022-07-25T02:04:32;7.55;;;6.28;;
25345;SDS011;13300;51.032;3.710;2022-07-25T02:06:58;11.30;;;7.00;;
25345;SDS011;13300;51.032;3.710;2022-07-25T02:09:24;12.55;;;7.35;;
25345;SDS011;13300;51.032;3.710;2022-07-25T02:11:50;8.43;;;6.50;;
25345;SDS011;13300;51.032;3.710;2022-07-25T02:14:16;11.02;;;6.60;;
25345;SDS011;13300;51.032;3.710;2022-07-25T02:16:42;8.38;;;6.65;;
25345;SDS011;13300;51.032;3.710;2022-07-25T02:19:08;11.05;;;6.60;;
25345;SDS011;13300;51.032;3.710;2022-07-25T02:21:33;10.82;;;7.22;;
25345;SDS011;13300;51.032;3.710;2022-07-25T02:23:59;9.43;;;6.93;;
25345;SDS011;13300;51.032;3.710;2022-07-25T02:26:25;12.52;;;7.38;;
25345;SDS011;13300;51.032;3.710;2022-07-25T02:28:51;8.45;;;6.90;;
25345;SDS011;13300;51.032;3.710;2022-07-25T02:31:17;7.93;;;6.78;;
25345;SDS011;13300;51.032;3.710;2022-07-25T02:33:43;10.77;;;7.18;;
25345;SDS011;13300;51.032;3.710;2022-07-25T02:36:09;13.05;;;6.95;;
25345;SDS011;13300;51.032;3.710;2022-07-25T02:38:35;11.30;;;7.32;;
25345;SDS011;13300;51.032;3.710;2022-07-25T02:41:01;11.63;;;7.55;;
25345;SDS011;13300;51.032;3.710;2022-07-25T02:43:27;11.32;;;7.20;;
25345;SDS011;13300;51.032;3.710;2022-07-25T02:45:52;12.70;;;7.03;;
25345;SDS011;13300;51.032;3.710;2022-07-25T02:48:18;11.23;;;6.90;;
25345;SDS011;13300;51.032;3.710;2022-07-25T02:50:44;11.75;;;6.70;;
25345;SDS011;13300;51.032;3.710;2022-07-25T02:53:10;9.55;;;6.65;;
25345;SDS011;13300;51.032;3.710;2022-07-25T02:55:35;7.45;;;6.15;;
25345;SDS011;13300;51.032;3.710;2022-07-25T02:58:01;9.93;;;6.40;;
25345;SDS011;13300;51.032;3.710;2022-07-25T03:00:27;6.47;;;5.80;;
25345;SDS011;13300;51.032;3.710;2022-07-25T03:02:54;8.18;;;5.80;;
25345;SDS011;13300;51.032;3.710;2022-07-25T03:05:20;7.80;;;6.32;;
25345;SDS011;13300;51.032;3.710;2022-07-25T03:07:46;7.78;;;5.60;;
25345;SDS011;13300;51.032;3.710;2022-07-25T03:10:12;8.40;;;6.03;;
25345;SDS011;13300;51.032;3.710;2022-07-25T03:12:38;7.78;;;5.75;;
25345;SDS011;13300;51.032;3.710;2022-07-25T03:15:05;8.13;;;6.07;;
25345;SDS011;13300;51.032;3.710;2022-07-25T03:17:32;7.63;;;5.47;;
25345;SDS011;13300;51.032;3.710;2022-07-25T03:19:57;8.07;;;5.57;;
25345;SDS011;13300;51.032;3.710;2022-07-25T03:22:23;11.30;;;5.75;;
25345;SDS011;13300;51.032;3.710;2022-07-25T03:24:50;6.40;;;5.28;;
25345;SDS011;13300;51.032;3.710;2022-07-25T03:27:17;11.32;;;5.35;;
25345;SDS011;13300;51.032;3.710;2022-07-25T03:29:43;7.97;;;5.15;;
25345;SDS011;13300;51.032;3.710;2022-07-25T03:32:10;10.38;;;4.60;;
25345;SDS011;13300;51.032;3.710;2022-07-25T03:34:35;8.45;;;4.63;;
25345;SDS011;13300;51.032;3.710;2022-07-25T03:37:02;4.80;;;3.92;;
25345;SDS011;13300;51.032;3.710;2022-07-25T03:39:28;7.30;;;4.22;;
25345;SDS011;13300;51.032;3.710;2022-07-25T03:41:54;6.03;;;4.18;;
25345;SDS011;13300;51.032;3.710;2022-07-25T03:44:21;5.97;;;3.97;;
25345;SDS011;13300;51.032;3.710;2022-07-25T03:46:47;7.57;;;4.25;;
25345;SDS011;13300;51.032;3.710;2022-07-25T03:49:13;6.50;;;4.32;;
25345;SDS011;13300;51.032;3.710;2022-07-25T03:51:39;6.40;;;3.78;;
25345;SDS011;13300;51.032;3.710;2022-07-25T03:54:05;5.65;;;3.70;;
25345;SDS011;13300;51.032;3.710;2022-07-25T03:56:36;5.78;;;3.72;;
25345;SDS011;13300;51.032;3.710;2022-07-25T03:59:06;5.97;;;3.40;;
25345;SDS011;13300;51.032;3.710;2022-07-25T04:01:32;5.40;;;3.28;;
25345;SDS011;13300;51.032;3.710;2022-07-25T04:03:59;9.23;;;3.42;;
25345;SDS011;13300;51.032;3.710;2022-07-25T04:06:25;7.00;;;3.30;;
25345;SDS011;13300;51.032;3.710;2022-07-25T04:08:52;4.15;;;3.33;;
25345;SDS011;13300;51.032;3.710;2022-07-25T04:11:18;6.93;;;3.42;;
25345;SDS011;13300;51.032;3.710;2022-07-25T04:13:44;8.85;;;2.78;;
25345;SDS011;13300;51.032;3.710;2022-07-25T04:16:10;3.65;;;2.47;;
25345;SDS011;13300;51.032;3.710;2022-07-25T04:18:36;7.88;;;2.70;;
25345;SDS011;13300;51.032;3.710;2022-07-25T04:21:02;5.63;;;2.85;;
25345;SDS011;13300;51.032;3.710;2022-07-25T04:23:29;6.80;;;2.70;;
25345;SDS011;13300;51.032;3.710;2022-07-25T04:25:55;8.77;;;2.75;;
25345;SDS011;13300;51.032;3.710;2022-07-25T04:28:22;4.50;;;2.60;;
25345;SDS011;13300;51.032;3.710;2022-07-25T04:30:48;6.60;;;2.60;;
25345;SDS011;13300;51.032;3.710;2022-07-25T04:33:15;6.30;;;2.58;;
25345;SDS011;13300;51.032;3.710;2022-07-25T04:35:40;7.85;;;2.33;;
25345;SDS011;13300;51.032;3.710;2022-07-25T04:38:06;4.47;;;2.55;;
25345;SDS011;13300;51.032;3.710;2022-07-25T04:40:32;9.57;;;3.30;;
25345;SDS011;13300;51.032;3.710;2022-07-25T04:42:58;5.30;;;2.63;;
25345;SDS011;13300;51.032;3.710;2022-07-25T04:45:23;7.40;;;2.55;;
25345;SDS011;13300;51.032;3.710;2022-07-25T04:47:49;5.22;;;2.65;;
25345;SDS011;13300;51.032;3.710;2022-07-25T04:50:15;6.72;;;2.88;;
25345;SDS011;13300;51.032;3.710;2022-07-25T04:52:41;6.60;;;2.95;;
25345;SDS011;13300;51.032;3.710;2022-07-25T04:55:08;6.00;;;3.50;;
25345;SDS011;13300;51.032;3.710;2022-07-25T04:57:34;4.55;;;3.03;;
25345;SDS011;13300;51.032;3.710;2022-07-25T05:00:00;7.15;;;3.47;;
25345;SDS011;13300;51.032;3.710;2022-07-25T05:02:28;7.45;;;3.08;;
25345;SDS011;13300;51.032;3.710;2022-07-25T05:04:54;7.45;;;3.63;;
25345;SDS011;13300;51.032;3.710;2022-07-25T05:07:20;7.43;;;3.58;;
25345;SDS011;13300;51.032;3.710;2022-07-25T05:09:45;7.28;;;3.40;;
25345;SDS011;13300;51.032;3.710;2022-07-25T05:12:11;8.45;;;3.58;;
25345;SDS011;13300;51.032;3.710;2022-07-25T05:14:36;6.28;;;3.55;;
25345;SDS011;13300;51.032;3.710;2022-07-25T05:17:02;5.97;;;3.03;;
25345;SDS011;13300;51.032;3.710;2022-07-25T05:19:28;9.18;;;3.53;;
25345;SDS011;13300;51.032;3.710;2022-07-25T05:21:54;6.82;;;3.20;;
25345;SDS011;13300;51.032;3.710;2022-07-25T05:24:20;11.60;;;3.53;;
25345;SDS011;13300;51.032;3.710;2022-07-25T05:26:47;9.10;;;3.42;;
25345;SDS011;13300;51.032;3.710;2022-07-25T05:29:13;6.85;;;3.33;;
25345;SDS011;13300;51.032;3.710;2022-07-25T05:31:39;6.93;;;3.40;;
25345;SDS011;13300;51.032;3.710;2022-07-25T05:34:05;10.93;;;3.40;;
25345;SDS011;13300;51.032;3.710;2022-07-25T05:36:30;8.35;;;3.53;;
25345;SDS011;13300;51.032;3.710;2022-07-25T05:38:57;6.70;;;3.08;;
25345;SDS011;13300;51.032;3.710;2022-07-25T05:41:23;6.45;;;2.92;;
25345;SDS011;13300;51.032;3.710;2022-07-25T05:43:49;8.55;;;3.08;;
25345;SDS011;13300;51.032;3.710;2022-07-25T05:46:14;11.80;;;3.38;;
25345;SDS011;13300;51.032;3.710;2022-07-25T05:48:41;6.25;;;3.13;;
25345;SDS011;13300;51.032;3.710;2022-07-25T05:51:07;9.10;;;3.42;;
25345;SDS011;13300;51.032;3.710;2022-07-25T05:53:33;10.77;;;3.60;;
25345;SDS011;13300;51.032;3.710;2022-07-25T05:55:58;5.13;;;3.20;;
25345;SDS011;13300;51.032;3.710;2022-07-25T05:58:24;10.85;;;3.45;;
25345;SDS011;13300;51.032;3.710;2022-07-25T06:00:50;8.13;;;3.10;;
25345;SDS011;13300;51.032;3.710;2022-07-25T06:03:16;7.95;;;3.13;;
25345;SDS011;13300;51.032;3.710;2022-07-25T06:05:43;9.65;;;4.20;;
25345;SDS011;13300;51.032;3.710;2022-07-25T06:08:12;7.60;;;3.40;;
25345;SDS011;13300;51.032;3.710;2022-07-25T06:10:40;8.40;;;3.30;;
25345;SDS011;13300;51.032;3.710;2022-07-25T06:13:05;11.63;;;3.50;;
25345;SDS011;13300;51.032;3.710;2022-07-25T06:15:32;6.70;;;3.47;;
25345;SDS011;13300;51.032;3.710;2022-07-25T06:17:57;5.78;;;3.50;;
25345;SDS011;13300;51.032;3.710;2022-07-25T06:20:23;9.18;;;4.07;;
25345;SDS011;13300;51.032;3.710;2022-07-25T06:22:49;11.73;;;4.13;;
25345;SDS011;13300;51.032;3.710;2022-07-25T06:25:15;10.45;;;4.15;;
25345;SDS011;13300;51.032;3.710;2022-07-25T06:27:41;12.48;;;4.18;;
25345;SDS011;13300;51.032;3.710;2022-07-25T06:30:07;9.02;;;3.90;;
25345;SDS011;13300;51.032;3.710;2022-07-25T06:32:34;11.05;;;4.10;;
25345;SDS011;13300;51.032;3.710;2022-07-25T06:35:00;10.15;;;5.53;;
25345;SDS011;13300;51.032;3.710;2022-07-25T06:37:26;9.07;;;3.78;;
25345;SDS011;13300;51.032;3.710;2022-07-25T06:39:52;8.95;;;4.30;;
25345;SDS011;13300;51.032;3.710;2022-07-25T06:42:18;8.13;;;4.00;;
25345;SDS011;13300;51.032;3.710;2022-07-25T06:44:44;9.10;;;3.80;;
25345;SDS011;13300;51.032;3.710;2022-07-25T06:47:09;6.97;;;3.67;;
25345;SDS011;13300;51.032;3.710;2022-07-25T06:49:40;7.05;;;3.47;;
25345;SDS011;13300;51.032;3.710;2022-07-25T06:52:06;8.35;;;3.75;;
25345;SDS011;13300;51.032;3.710;2022-07-25T06:54:32;4.70;;;3.25;;
25345;SDS011;13300;51.032;3.710;2022-07-25T06:56:59;9.00;;;3.72;;
25345;SDS011;13300;51.032;3.710;2022-07-25T06:59:24;8.18;;;3.55;;
25345;SDS011;13300;51.032;3.710;2022-07-25T07:01:50;5.60;;;3.17;;
25345;SDS011;13300;51.032;3.710;2022-07-25T07:04:16;5.18;;;3.03;;
25345;SDS011;13300;51.032;3.710;2022-07-25T07:06:42;5.63;;;3.28;;
25345;SDS011;13300;51.032;3.710;2022-07-25T07:09:08;8.30;;;3.10;;
25345;SDS011;13300;51.032;3.710;2022-07-25T07:11:34;5.47;;;2.90;;
25345;SDS011;13300;51.032;3.710;2022-07-25T07:14:03;9.35;;;2.80;;
25345;SDS011;13300;51.032;3.710;2022-07-25T07:16:29;4.97;;;2.58;;
25345;SDS011;13300;51.032;3.710;2022-07-25T07:18:55;6.13;;;2.65;;
25345;SDS011;13300;51.032;3.710;2022-07-25T07:21:21;4.82;;;2.63;;
25345;SDS011;13300;51.032;3.710;2022-07-25T07:23:47;8.63;;;2.53;;
25345;SDS011;13300;51.032;3.710;2022-07-25T07:26:13;4.28;;;2.55;;
25345;SDS011;13300;51.032;3.710;2022-07-25T07:28:39;4.30;;;2.70;;
25345;SDS011;13300;51.032;3.710;2022-07-25T07:31:05;5.47;;;2.33;;
25345;SDS011;13300;51.032;3.710;2022-07-25T07:33:31;5.30;;;2.20;;
25345;SDS011;13300;51.032;3.710;2022-07-25T07:35:57;6.45;;;2.60;;
25345;SDS011;13300;51.032;3.710;2022-07-25T07:38:23;6.22;;;2.40;;
25345;SDS011;13300;51.032;3.710;2022-07-25T07:40:50;5.82;;;2.10;;
25345;SDS011;13300;51.032;3.710;2022-07-25T07:43:16;7.07;;;2.25;;
25345;SDS011;13300;51.032;3.710;2022-07-25T07:45:42;7.68;;;2.28;;
25345;SDS011;13300;51.032;3.710;2022-07-25T07:48:08;8.25;;;2.65;;
25345;SDS011;13300;51.032;3.710;2022-07-25T07:50:34;4.95;;;1.90;;
25345;SDS011;13300;51.032;3.710;2022-07-25T07:53:00;4.03;;;2.10;;
25345;SDS011;13300;51.032;3.710;2022-07-25T07:55:26;4.43;;;1.80;;
25345;SDS011;13300;51.032;3.710;2022-07-25T07:58:16;7.47;;;2.13;;
25345;SDS011;13300;51.032;3.710;2022-07-25T08:00:45;4.45;;;2.03;;
25345;SDS011;13300;51.032;3.710;2022-07-25T08:03:12;5.93;;;2.25;;
25345;SDS011;13300;51.032;3.710;2022-07-25T08:05:42;4.70;;;1.90;;
25345;SDS011;13300;51.032;3.710;2022-07-25T08:08:09;4.38;;;1.90;;
25345;SDS011;13300;51.032;3.710;2022-07-25T08:10:37;4.88;;;1.75;;
25345;SDS011;13300;51.032;3.710;2022-07-25T08:15:45;3.25;;;2.15;;
25345;SDS011;13300;51.032;3.710;2022-07-25T08:18:13;4.28;;;1.70;;
25345;SDS011;13300;51.032;3.710;2022-07-25T08:20:38;4.10;;;2.10;;
25345;SDS011;13300;51.032;3.710;2022-07-25T08:23:05;6.25;;;2.17;;
25345;SDS011;13300;51.032;3.710;2022-07-25T08:25:32;4.15;;;1.80;;
25345;SDS011;13300;51.032;3.710;2022-07-25T08:27:59;5.85;;;2.08;;
25345;SDS011;13300;51.032;3.710;2022-07-25T08:30:25;4.18;;;1.67;;
25345;SDS011;13300;51.032;3.710;2022-07-25T08:32:55;5.88;;;2.00;;
25345;SDS011;13300;51.032;3.710;2022-07-25T08:35:23;6.30;;;2.13;;
25345;SDS011;13300;51.032;3.710;2022-07-25T08:37:50;6.63;;;2.85;;
25345;SDS011;13300;51.032;3.710;2022-07-25T08:40:17;6.22;;;2.53;;
25345;SDS011;13300;51.032;3.710;2022-07-25T08:42:46;5.57;;;1.95;;
25345;SDS011;13300;51.032;3.710;2022-07-25T08:45:13;7.13;;;2.20;;
25345;SDS011;13300;51.032;3.710;2022-07-25T08:47:43;7.25;;;2.33;;
25345;SDS011;13300;51.032;3.710;2022-07-25T08:50:15;5.95;;;2.67;;
25345;SDS011;13300;51.032;3.710;2022-07-25T08:52:46;7.30;;;2.25;;
25345;SDS011;13300;51.032;3.710;2022-07-25T08:55:13;6.57;;;2.20;;
25345;SDS011;13300;51.032;3.710;2022-07-25T08:57:44;8.93;;;2.28;;
25345;SDS011;13300;51.032;3.710;2022-07-25T09:00:12;7.25;;;2.40;;
25345;SDS011;13300;51.032;3.710;2022-07-25T09:02:41;7.63;;;2.20;;
25345;SDS011;13300;51.032;3.710;2022-07-25T09:05:07;4.85;;;2.55;;
25345;SDS011;13300;51.032;3.710;2022-07-25T09:07:37;7.28;;;2.47;;
25345;SDS011;13300;51.032;3.710;2022-07-25T09:10:13;6.55;;;2.42;;
25345;SDS011;13300;51.032;3.710;2022-07-25T09:12:41;8.70;;;3.05;;
25345;SDS011;13300;51.032;3.710;2022-07-25T09:15:29;7.78;;;2.70;;
25345;SDS011;13300;51.032;3.710;2022-07-25T09:17:58;9.43;;;3.30;;
25345;SDS011;13300;51.032;3.710;2022-07-25T09:20:46;5.03;;;2.25;;
25345;SDS011;13300;51.032;3.710;2022-07-25T09:23:33;5.45;;;2.58;;
25345;SDS011;13300;51.032;3.710;2022-07-25T09:28:27;9.00;;;2.47;;
25345;SDS011;13300;51.032;3.710;2022-07-25T09:30:54;5.45;;;2.38;;
25345;SDS011;13300;51.032;3.710;2022-07-25T09:33:24;6.97;;;2.65;;
25345;SDS011;13300;51.032;3.710;2022-07-25T09:35:51;8.15;;;2.67;;
25345;SDS011;13300;51.032;3.710;2022-07-25T09:38:18;8.10;;;2.30;;
25345;SDS011;13300;51.032;3.710;2022-07-25T09:40:59;8.52;;;2.67;;
25345;SDS011;13300;51.032;3.710;2022-07-25T09:43:40;8.57;;;2.88;;
25345;SDS011;13300;51.032;3.710;2022-07-25T09:46:07;6.18;;;2.28;;
25345;SDS011;13300;51.032;3.710;2022-07-25T09:48:35;5.47;;;2.10;;
25345;SDS011;13300;51.032;3.710;2022-07-25T09:51:03;7.93;;;2.35;;
25345;SDS011;13300;51.032;3.710;2022-07-25T09:53:30;5.20;;;2.17;;
25345;SDS011;13300;51.032;3.710;2022-07-25T09:55:57;7.47;;;2.45;;
25345;SDS011;13300;51.032;3.710;2022-07-25T09:58:23;7.28;;;2.78;;
25345;SDS011;13300;51.032;3.710;2022-07-25T10:00:51;6.20;;;2.65;;
25345;SDS011;13300;51.032;3.710;2022-07-25T10:08:59;4.97;;;2.28;;
25345;SDS011;13300;51.032;3.710;2022-07-25T10:11:26;8.98;;;2.45;;
25345;SDS011;13300;51.032;3.710;2022-07-25T10:13:55;6.47;;;2.30;;
25345;SDS011;13300;51.032;3.710;2022-07-25T10:16:44;7.00;;;2.30;;
25345;SDS011;13300;51.032;3.710;2022-07-25T10:19:11;8.20;;;2.28;;
25345;SDS011;13300;51.032;3.710;2022-07-25T10:21:37;7.25;;;2.20;;
25345;SDS011;13300;51.032;3.710;2022-07-25T10:24:04;5.65;;;2.10;;
25345;SDS011;13300;51.032;3.710;2022-07-25T10:26:31;9.07;;;2.95;;
25345;SDS011;13300;51.032;3.710;2022-07-25T10:28:59;4.55;;;2.22;;
25345;SDS011;13300;51.032;3.710;2022-07-25T10:31:33;4.90;;;2.33;;
25345;SDS011;13300;51.032;3.710;2022-07-25T10:34:07;8.07;;;2.50;;
25345;SDS011;13300;51.032;3.710;2022-07-25T10:36:44;7.70;;;2.22;;
25345;SDS011;13300;51.032;3.710;2022-07-25T10:39:16;5.57;;;1.88;;
25345;SDS011;13300;51.032;3.710;2022-07-25T10:41:51;8.75;;;2.78;;
25345;SDS011;13300;51.032;3.710;2022-07-25T10:44:18;8.80;;;2.25;;
25345;SDS011;13300;51.032;3.710;2022-07-25T10:46:44;5.53;;;2.00;;
25345;SDS011;13300;51.032;3.710;2022-07-25T10:49:21;8.15;;;2.50;;
25345;SDS011;13300;51.032;3.710;2022-07-25T10:51:55;9.90;;;2.72;;
25345;SDS011;13300;51.032;3.710;2022-07-25T10:54:25;10.32;;;2.72;;
25345;SDS011;13300;51.032;3.710;2022-07-25T10:56:58;6.32;;;2.33;;
25345;SDS011;13300;51.032;3.710;2022-07-25T10:59:34;10.38;;;2.28;;
25345;SDS011;13300;51.032;3.710;2022-07-25T11:02:02;7.30;;;2.30;;
25345;SDS011;13300;51.032;3.710;2022-07-25T11:04:32;9.15;;;2.63;;
25345;SDS011;13300;51.032;3.710;2022-07-25T11:07:08;9.32;;;2.30;;
25345;SDS011;13300;51.032;3.710;2022-07-25T11:09:34;7.72;;;2.15;;
25345;SDS011;13300;51.032;3.710;2022-07-25T11:12:00;6.80;;;2.35;;
25345;SDS011;13300;51.032;3.710;2022-07-25T11:14:30;8.05;;;2.67;;
25345;SDS011;13300;51.032;3.710;2022-07-25T11:17:14;7.47;;;2.10;;
25345;SDS011;13300;51.032;3.710;2022-07-25T11:19:51;8.40;;;2.58;;
25345;SDS011;13300;51.032;3.710;2022-07-25T11:22:21;7.45;;;2.38;;
25345;SDS011;13300;51.032;3.710;2022-07-25T11:24:47;5.00;;;1.80;;
25345;SDS011;13300;51.032;3.710;2022-07-25T11:27:34;6.93;;;1.90;;
25345;SDS011;13300;51.032;3.710;2022-07-25T11:30:12;7.43;;;1.92;;
25345;SDS011;13300;51.032;3.710;2022-07-25T11:32:41;6.05;;;1.80;;
25345;SDS011;13300;51.032;3.710;2022-07-25T11:35:08;4.68;;;1.70;;
25345;SDS011;13300;51.032;3.710;2022-07-25T11:37:41;5.15;;;1.92;;
25345;SDS011;13300;51.032;3.710;2022-07-25T11:40:12;4.38;;;1.60;;
25345;SDS011;13300;51.032;3.710;2022-07-25T11:42:53;7.50;;;2.28;;
25345;SDS011;13300;51.032;3.710;2022-07-25T11:45:22;8.45;;;2.63;;
25345;SDS011;13300;51.032;3.710;2022-07-25T11:48:11;7.57;;;2.20;;
25345;SDS011;13300;51.032;3.710;2022-07-25T11:50:39;6.88;;;2.17;;
25345;SDS011;13300;51.032;3.710;2022-07-25T11:53:10;7.32;;;2.22;;
25345;SDS011;13300;51.032;3.710;2022-07-25T11:55:38;5.15;;;1.95;;
25345;SDS011;13300;51.032;3.710;2022-07-25T11:58:06;8.45;;;2.10;;
25345;SDS011;13300;51.032;3.710;2022-07-25T12:00:33;5.80;;;2.00;;
25345;SDS011;13300;51.032;3.710;2022-07-25T12:03:09;6.38;;;2.13;;
25345;SDS011;13300;51.032;3.710;2022-07-25T12:05:36;6.85;;;2.63;;
25345;SDS011;13300;51.032;3.710;2022-07-25T12:08:15;8.00;;;1.60;;
25345;SDS011;13300;51.032;3.710;2022-07-25T12:10:43;7.57;;;2.17;;
25345;SDS011;13300;51.032;3.710;2022-07-25T12:13:22;7.78;;;1.58;;
25345;SDS011;13300;51.032;3.710;2022-07-25T12:15:49;7.15;;;2.10;;
25345;SDS011;13300;51.032;3.710;2022-07-25T12:18:21;5.50;;;1.55;;
25345;SDS011;13300;51.032;3.710;2022-07-25T12:20:47;11.05;;;1.58;;
25345;SDS011;13300;51.032;3.710;2022-07-25T12:23:15;6.35;;;1.35;;
25345;SDS011;13300;51.032;3.710;2022-07-25T12:25:42;9.93;;;1.52;;
25345;SDS011;13300;51.032;3.710;2022-07-25T12:28:09;6.25;;;1.55;;
25345;SDS011;13300;51.032;3.710;2022-07-25T12:30:36;7.45;;;1.65;;
25345;SDS011;13300;51.032;3.710;2022-07-25T12:33:03;7.35;;;1.48;;
25345;SDS011;13300;51.032;3.710;2022-07-25T12:35:29;7.63;;;1.75;;
25345;SDS011;13300;51.032;3.710;2022-07-25T12:37:55;7.10;;;1.40;;
25345;SDS011;13300;51.032;3.710;2022-07-25T12:40:21;6.90;;;1.42;;
25345;SDS011;13300;51.032;3.710;2022-07-25T12:42:47;5.28;;;1.67;;
25345;SDS011;13300;51.032;3.710;2022-07-25T12:45:14;10.98;;;2.42;;
25345;SDS011;13300;51.032;3.710;2022-07-25T12:47:42;5.93;;;1.40;;
25345;SDS011;13300;51.032;3.710;2022-07-25T12:50:09;8.48;;;1.85;;
25345;SDS011;13300;51.032;3.710;2022-07-25T12:52:36;9.13;;;1.80;;
25345;SDS011;13300;51.032;3.710;2022-07-25T12:55:08;6.00;;;1.60;;
25345;SDS011;13300;51.032;3.710;2022-07-25T12:57:36;5.13;;;1.30;;
25345;SDS011;13300;51.032;3.710;2022-07-25T13:00:06;4.03;;;1.10;;
25345;SDS011;13300;51.032;3.710;2022-07-25T13:02:34;4.85;;;2.25;;
25345;SDS011;13300;51.032;3.710;2022-07-25T13:05:01;5.80;;;1.40;;
25345;SDS011;13300;51.032;3.710;2022-07-25T13:07:27;6.20;;;1.42;;
25345;SDS011;13300;51.032;3.710;2022-07-25T13:09:52;2.90;;;0.93;;
25345;SDS011;13300;51.032;3.710;2022-07-25T13:12:18;5.85;;;1.13;;
25345;SDS011;13300;51.032;3.710;2022-07-25T13:14:44;4.82;;;1.25;;
25345;SDS011;13300;51.032;3.710;2022-07-25T13:17:10;4.35;;;1.17;;
25345;SDS011;13300;51.032;3.710;2022-07-25T13:19:36;3.75;;;1.27;;
25345;SDS011;13300;51.032;3.710;2022-07-25T13:22:01;4.25;;;1.10;;
25345;SDS011;13300;51.032;3.710;2022-07-25T13:24:27;4.32;;;1.20;;
25345;SDS011;13300;51.032;3.710;2022-07-25T13:26:53;4.13;;;1.20;;
25345;SDS011;13300;51.032;3.710;2022-07-25T13:29:19;4.40;;;1.10;;
25345;SDS011;13300;51.032;3.710;2022-07-25T13:31:44;5.60;;;1.40;;
25345;SDS011;13300;51.032;3.710;2022-07-25T13:34:11;5.45;;;1.20;;
25345;SDS011;13300;51.032;3.710;2022-07-25T13:36:37;5.97;;;1.10;;
25345;SDS011;13300;51.032;3.710;2022-07-25T13:39:04;2.38;;;0.85;;
25345;SDS011;13300;51.032;3.710;2022-07-25T13:41:30;4.88;;;1.35;;
25345;SDS011;13300;51.032;3.710;2022-07-25T13:43:56;2.35;;;0.90;;
25345;SDS011;13300;51.032;3.710;2022-07-25T13:46:22;2.50;;;0.80;;
25345;SDS011;13300;51.032;3.710;2022-07-25T13:48:48;5.50;;;1.10;;
25345;SDS011;13300;51.032;3.710;2022-07-25T13:51:14;3.95;;;1.13;;
25345;SDS011;13300;51.032;3.710;2022-07-25T13:53:40;6.90;;;1.08;;
25345;SDS011;13300;51.032;3.710;2022-07-25T13:56:05;5.20;;;0.88;;
25345;SDS011;13300;51.032;3.710;2022-07-25T13:58:31;4.18;;;0.90;;
25345;SDS011;13300;51.032;3.710;2022-07-25T14:00:57;4.90;;;0.88;;
25345;SDS011;13300;51.032;3.710;2022-07-25T14:03:23;4.82;;;1.33;;
25345;SDS011;13300;51.032;3.710;2022-07-25T14:05:49;3.97;;;0.93;;
25345;SDS011;13300;51.032;3.710;2022-07-25T14:08:15;3.38;;;0.85;;
25345;SDS011;13300;51.032;3.710;2022-07-25T14:10:40;5.82;;;0.85;;
25345;SDS011;13300;51.032;3.710;2022-07-25T14:13:06;3.90;;;0.88;;
25345;SDS011;13300;51.032;3.710;2022-07-25T14:15:32;4.72;;;1.00;;
25345;SDS011;13300;51.032;3.710;2022-07-25T14:17:58;4.93;;;0.95;;
25345;SDS011;13300;51.032;3.710;2022-07-25T14:20:23;5.55;;;0.93;;
25345;SDS011;13300;51.032;3.710;2022-07-25T14:22:49;2.53;;;0.60;;
25345;SDS011;13300;51.032;3.710;2022-07-25T14:25:15;6.05;;;0.95;;
25345;SDS011;13300;51.032;3.710;2022-07-25T14:27:40;8.32;;;1.00;;
25345;SDS011;13300;51.032;3.710;2022-07-25T14:30:07;3.17;;;1.20;;
25345;SDS011;13300;51.032;3.710;2022-07-25T14:32:33;2.28;;;0.80;;
25345;SDS011;13300;51.032;3.710;2022-07-25T14:35:00;3.20;;;0.70;;
25345;SDS011;13300;51.032;3.710;2022-07-25T14:37:26;3.28;;;0.90;;
25345;SDS011;13300;51.032;3.710;2022-07-25T14:39:55;6.07;;;0.95;;
25345;SDS011;13300;51.032;3.710;2022-07-25T14:42:21;3.88;;;0.80;;
25345;SDS011;13300;51.032;3.710;2022-07-25T14:44:47;4.30;;;0.90;;
25345;SDS011;13300;51.032;3.710;2022-07-25T14:47:13;4.35;;;0.70;;
25345;SDS011;13300;51.032;3.710;2022-07-25T14:49:39;1.80;;;0.65;;
25345;SDS011;13300;51.032;3.710;2022-07-25T14:52:05;7.00;;;0.95;;
25345;SDS011;13300;51.032;3.710;2022-07-25T14:54:30;5.18;;;0.80;;
25345;SDS011;13300;51.032;3.710;2022-07-25T14:56:56;2.00;;;0.70;;